sensor_id;sensor_type;location;lat;lon;timestamp;pressure;altitude;pressure_sealevel;temperature;humidity
80502;BME280;76286;51.190;6.808;2024-03-22T00:01:57;102089.38;;;12.01;65.18
80502;BME280;76286;51.190;6.808;2024-03-22T00:07:01;102095.94;;;11.98;65.14
80502;BME280;76286;51.190;6.808;2024-03-22T00:12:08;102098.78;;;11.97;65.35
80502;BME280;76286;51.190;6.808;2024-03-22T00:17:09;102091.19;;;11.94;64.20
80502;BME280;76286;51.190;6.808;2024-03-22T00:22:10;102082.72;;;11.90;64.41
80502;BME280;76286;51.190;6.808;2024-03-22T00:27:11;102085.59;;;11.89;65.20
80502;BME280;76286;51.190;6.808;2024-03-22T00:32:18;102078.38;;;11.89;64.91
80502;BME280;76286;51.190;6.808;2024-03-22T00:37:25;102062.53;;;11.88;64.86
80502;BME280;76286;51.190;6.808;2024-03-22T00:42:28;102050.59;;;11.84;65.32
80502;BME280;76286;51.190;6.808;2024-03-22T00:47:35;102051.59;;;11.83;64.95
80502;BME280;76286;51.190;6.808;2024-03-22T00:52:36;102035.53;;;11.83;65.21
80502;BME280;76286;51.190;6.808;2024-03-22T00:57:37;102028.56;;;11.82;65.12
80502;BME280;76286;51.190;6.808;2024-03-22T01:02:47;102025.88;;;11.82;64.69
80502;BME280;76286;51.190;6.808;2024-03-22T01:07:53;102022.38;;;11.81;65.07
80502;BME280;76286;51.190;6.808;2024-03-22T01:12:56;102018.03;;;11.80;65.44
80502;BME280;76286;51.190;6.808;2024-03-22T01:18:02;102013.50;;;11.81;65.67
80502;BME280;76286;51.190;6.808;2024-03-22T01:23:09;102014.53;;;11.80;64.82
80502;BME280;76286;51.190;6.808;2024-03-22T01:28:10;102005.47;;;11.81;65.61
80502;BME280;76286;51.190;6.808;2024-03-22T01:33:12;102005.47;;;11.81;64.44
80502;BME280;76286;51.190;6.808;2024-03-22T01:38:15;101992.31;;;11.79;65.30
80502;BME280;76286;51.190;6.808;2024-03-22T01:43:18;101984.69;;;11.76;64.45
80502;BME280;76286;51.190;6.808;2024-03-22T01:48:19;101975.44;;;11.79;65.46
80502;BME280;76286;51.190;6.808;2024-03-22T01:53:23;101972.13;;;11.77;65.66
80502;BME280;76286;51.190;6.808;2024-03-22T01:58:30;101963.47;;;11.75;65.11
80502;BME280;76286;51.190;6.808;2024-03-22T02:03:34;101969.03;;;11.73;65.15
80502;BME280;76286;51.190;6.808;2024-03-22T02:08:38;101962.84;;;11.73;65.79
80502;BME280;76286;51.190;6.808;2024-03-22T02:13:42;101950.50;;;11.72;65.45
80502;BME280;76286;51.190;6.808;2024-03-22T02:18:45;101938.13;;;11.71;65.27
80502;BME280;76286;51.190;6.808;2024-03-22T02:23:50;101921.47;;;11.69;65.32
80502;BME280;76286;51.190;6.808;2024-03-22T02:28:53;101913.22;;;11.70;65.33
80502;BME280;76286;51.190;6.808;2024-03-22T02:33:58;101914.28;;;11.69;65.07
80502;BME280;76286;51.190;6.808;2024-03-22T02:39:04;101897.38;;;11.69;64.83
80502;BME280;76286;51.190;6.808;2024-03-22T02:44:08;101897.38;;;11.69;65.61
80502;BME280;76286;51.190;6.808;2024-03-22T02:49:09;101903.56;;;11.69;65.68
80502;BME280;76286;51.190;6.808;2024-03-22T02:54:10;101892.88;;;11.69;65.11
80502;BME280;76286;51.190;6.808;2024-03-22T02:59:14;101892.22;;;11.67;65.28
80502;BME280;76286;51.190;6.808;2024-03-22T03:04:15;101887.50;;;11.69;65.40
80502;BME280;76286;51.190;6.808;2024-03-22T03:09:25;101886.44;;;11.64;64.62
80502;BME280;76286;51.190;6.808;2024-03-22T03:14:31;101872.44;;;11.62;64.96
80502;BME280;76286;51.190;6.808;2024-03-22T03:19:32;101860.28;;;11.59;65.65
80502;BME280;76286;51.190;6.808;2024-03-22T03:24:33;101856.78;;;11.59;65.55
80502;BME280;76286;51.190;6.808;2024-03-22T03:29:35;101851.84;;;11.56;65.47
80502;BME280;76286;51.190;6.808;2024-03-22T03:34:39;101837.44;;;11.50;65.94
80502;BME280;76286;51.190;6.808;2024-03-22T03:39:41;101841.34;;;11.48;65.41
80502;BME280;76286;51.190;6.808;2024-03-22T03:44:44;101841.75;;;11.45;65.36
80502;BME280;76286;51.190;6.808;2024-03-22T03:49:48;101832.50;;;11.41;65.19
80502;BME280;76286;51.190;6.808;2024-03-22T03:54:55;101831.03;;;11.38;65.30
80502;BME280;76286;51.190;6.808;2024-03-22T03:59:58;101821.56;;;11.36;65.44
80502;BME280;76286;51.190;6.808;2024-03-22T04:04:59;101816.63;;;11.32;65.67
80502;BME280;76286;51.190;6.808;2024-03-22T04:10:06;101806.94;;;11.25;65.02
80502;BME280;76286;51.190;6.808;2024-03-22T04:15:11;101791.28;;;11.22;65.93
80502;BME280;76286;51.190;6.808;2024-03-22T04:20:14;101796.41;;;11.17;65.93
80502;BME280;76286;51.190;6.808;2024-03-22T04:25:22;101787.16;;;11.13;66.09
80502;BME280;76286;51.190;6.808;2024-03-22T04:30:31;101787.78;;;11.08;66.21
80502;BME280;76286;51.190;6.808;2024-03-22T04:35:35;101775.84;;;11.04;66.25
80502;BME280;76286;51.190;6.808;2024-03-22T04:40:54;101771.53;;;11.03;66.00
80502;BME280;76286;51.190;6.808;2024-03-22T04:46:04;101762.66;;;11.03;65.59
80502;BME280;76286;51.190;6.808;2024-03-22T04:51:08;101756.91;;;10.99;66.42
80502;BME280;76286;51.190;6.808;2024-03-22T04:56:15;101747.88;;;11.00;66.08
80502;BME280;76286;51.190;6.808;2024-03-22T05:01:16;101746.84;;;11.01;66.38
80502;BME280;76286;51.190;6.808;2024-03-22T05:06:17;101742.94;;;11.04;66.04
80502;BME280;76286;51.190;6.808;2024-03-22T05:11:26;101740.69;;;11.01;65.68
80502;BME280;76286;51.190;6.808;2024-03-22T05:16:33;101742.50;;;11.00;65.81
80502;BME280;76286;51.190;6.808;2024-03-22T05:21:36;101741.28;;;11.03;66.25
80502;BME280;76286;51.190;6.808;2024-03-22T05:26:44;101737.78;;;11.02;66.13
80502;BME280;76286;51.190;6.808;2024-03-22T05:31:48;101735.13;;;11.02;65.54
80502;BME280;76286;51.190;6.808;2024-03-22T05:37:12;101734.09;;;11.03;66.12
80502;BME280;76286;51.190;6.808;2024-03-22T05:42:16;101733.09;;;11.04;66.09
80502;BME280;76286;51.190;6.808;2024-03-22T05:47:20;101736.38;;;11.06;65.40
80502;BME280;76286;51.190;6.808;2024-03-22T05:52:31;101731.03;;;11.06;66.08
80502;BME280;76286;51.190;6.808;2024-03-22T05:57:40;101714.16;;;11.06;66.23
80502;BME280;76286;51.190;6.808;2024-03-22T06:02:54;101720.13;;;11.08;66.34
80502;BME280;76286;51.190;6.808;2024-03-22T06:07:56;101729.59;;;11.10;65.93
80502;BME280;76286;51.190;6.808;2024-03-22T06:13:05;101732.88;;;11.12;65.74
80502;BME280;76286;51.190;6.808;2024-03-22T06:18:17;101725.69;;;11.13;66.29
80502;BME280;76286;51.190;6.808;2024-03-22T06:23:28;101721.16;;;11.13;65.83
80502;BME280;76286;51.190;6.808;2024-03-22T06:28:37;101715.44;;;11.16;66.30
80502;BME280;76286;51.190;6.808;2024-03-22T06:33:45;101692.59;;;11.20;65.60
80502;BME280;76286;51.190;6.808;2024-03-22T06:38:58;101692.38;;;11.22;65.60
80502;BME280;76286;51.190;6.808;2024-03-22T06:44:04;101694.03;;;11.29;65.38
80502;BME280;76286;51.190;6.808;2024-03-22T06:49:13;101694.84;;;11.37;65.38
80502;BME280;76286;51.190;6.808;2024-03-22T06:54:30;101696.28;;;11.46;65.62
80502;BME280;76286;51.190;6.808;2024-03-22T06:59:58;101690.53;;;11.55;65.63
80502;BME280;76286;51.190;6.808;2024-03-22T07:05:00;101689.69;;;11.61;65.57
80502;BME280;76286;51.190;6.808;2024-03-22T07:10:03;101665.44;;;11.69;64.84
80502;BME280;76286;51.190;6.808;2024-03-22T07:15:17;101681.47;;;11.76;65.32
80502;BME280;76286;51.190;6.808;2024-03-22T07:20:22;101677.97;;;11.82;65.13
80502;BME280;76286;51.190;6.808;2024-03-22T07:25:24;101678.78;;;11.89;64.88
80502;BME280;76286;51.190;6.808;2024-03-22T07:30:27;101669.06;;;11.94;63.91
80502;BME280;76286;51.190;6.808;2024-03-22T07:35:28;101680.41;;;12.03;64.66
80502;BME280;76286;51.190;6.808;2024-03-22T07:40:35;101680.78;;;12.13;64.64
80502;BME280;76286;51.190;6.808;2024-03-22T07:45:48;101677.00;;;12.27;64.57
80502;BME280;76286;51.190;6.808;2024-03-22T07:51:00;101666.03;;;12.42;64.45
80502;BME280;76286;51.190;6.808;2024-03-22T07:56:08;101661.00;;;12.58;64.63
80502;BME280;76286;51.190;6.808;2024-03-22T08:01:12;101665.66;;;12.76;64.23
80502;BME280;76286;51.190;6.808;2024-03-22T08:06:34;101661.41;;;12.93;63.52
80502;BME280;76286;51.190;6.808;2024-03-22T08:11:39;101634.91;;;13.10;63.58
80502;BME280;76286;51.190;6.808;2024-03-22T08:16:43;101641.81;;;13.24;63.56
80502;BME280;76286;51.190;6.808;2024-03-22T08:22:11;101651.78;;;13.42;63.33
80502;BME280;76286;51.190;6.808;2024-03-22T08:27:13;101650.00;;;13.54;63.64
80502;BME280;76286;51.190;6.808;2024-03-22T08:32:24;101645.53;;;13.66;63.34
80502;BME280;76286;51.190;6.808;2024-03-22T08:37:50;101651.00;;;13.77;63.01
80502;BME280;76286;51.190;6.808;2024-03-22T08:43:16;101641.34;;;13.88;62.96
80502;BME280;76286;51.190;6.808;2024-03-22T08:48:17;101652.19;;;14.00;62.85
80502;BME280;76286;51.190;6.808;2024-03-22T08:53:21;101636.97;;;14.12;62.91
80502;BME280;76286;51.190;6.808;2024-03-22T08:59:18;101636.94;;;14.30;62.78
80502;BME280;76286;51.190;6.808;2024-03-22T09:16:44;101621.97;;;14.82;62.27
80502;BME280;76286;51.190;6.808;2024-03-22T09:21:54;101621.16;;;14.93;62.34
80502;BME280;76286;51.190;6.808;2024-03-22T09:26:58;101612.53;;;15.02;62.05
80502;BME280;76286;51.190;6.808;2024-03-22T09:32:08;101611.94;;;15.23;61.58
80502;BME280;76286;51.190;6.808;2024-03-22T09:37:13;101607.06;;;15.44;61.62
80502;BME280;76286;51.190;6.808;2024-03-22T09:42:24;101608.13;;;15.66;61.50
80502;BME280;76286;51.190;6.808;2024-03-22T10:03:23;101583.66;;;16.35;60.41
80502;BME280;76286;51.190;6.808;2024-03-22T10:08:25;101578.94;;;16.42;60.11
80502;BME280;76286;51.190;6.808;2024-03-22T10:13:34;101576.13;;;16.49;60.43
80502;BME280;76286;51.190;6.808;2024-03-22T10:18:36;101572.94;;;16.52;60.54
80502;BME280;76286;51.190;6.808;2024-03-22T10:23:37;101560.84;;;16.54;60.07
80502;BME280;76286;51.190;6.808;2024-03-22T10:34:11;101556.72;;;16.64;59.65
80502;BME280;76286;51.190;6.808;2024-03-22T10:39:20;101539.81;;;16.68;60.26
80502;BME280;76286;51.190;6.808;2024-03-22T10:56:10;101521.97;;;16.84;60.02
80502;BME280;76286;51.190;6.808;2024-03-22T11:06:57;101509.47;;;16.94;59.86
80502;BME280;76286;51.190;6.808;2024-03-22T11:12:12;101499.78;;;16.98;59.64
80502;BME280;76286;51.190;6.808;2024-03-22T11:17:22;101499.03;;;17.03;59.94
80502;BME280;76286;51.190;6.808;2024-03-22T11:22:30;101496.41;;;17.08;59.48
80502;BME280;76286;51.190;6.808;2024-03-22T11:27:32;101483.00;;;17.13;59.48
80502;BME280;76286;51.190;6.808;2024-03-22T11:32:53;101479.31;;;17.19;59.81
80502;BME280;76286;51.190;6.808;2024-03-22T11:38:00;101481.84;;;17.25;59.70
80502;BME280;76286;51.190;6.808;2024-03-22T11:43:10;101488.13;;;17.31;59.69
80502;BME280;76286;51.190;6.808;2024-03-22T11:49:00;101490.44;;;17.44;59.40
80502;BME280;76286;51.190;6.808;2024-03-22T11:54:24;101487.06;;;17.54;59.45
80502;BME280;76286;51.190;6.808;2024-03-22T11:59:38;101489.66;;;17.65;59.19
80502;BME280;76286;51.190;6.808;2024-03-22T12:10:39;101478.22;;;17.80;59.08
80502;BME280;76286;51.190;6.808;2024-03-22T12:15:49;101469.34;;;17.84;58.84
80502;BME280;76286;51.190;6.808;2024-03-22T12:27:07;101464.06;;;17.95;58.74
80502;BME280;76286;51.190;6.808;2024-03-22T12:32:24;101447.31;;;17.98;58.37
80502;BME280;76286;51.190;6.808;2024-03-22T12:37:33;101441.41;;;18.01;58.73
80502;BME280;76286;51.190;6.808;2024-03-22T12:42:44;101434.13;;;18.01;58.72
80502;BME280;76286;51.190;6.808;2024-03-22T12:48:04;101423.31;;;18.01;58.51
80502;BME280;76286;51.190;6.808;2024-03-22T12:53:54;101408.69;;;17.97;58.32
80502;BME280;76286;51.190;6.808;2024-03-22T12:59:16;101403.78;;;17.94;58.46
80502;BME280;76286;51.190;6.808;2024-03-22T13:04:27;101401.06;;;17.94;58.87
80502;BME280;76286;51.190;6.808;2024-03-22T13:09:31;101393.97;;;17.88;58.68
80502;BME280;76286;51.190;6.808;2024-03-22T13:14:45;101389.13;;;17.85;59.00
80502;BME280;76286;51.190;6.808;2024-03-22T13:19:59;101371.53;;;17.82;59.17
80502;BME280;76286;51.190;6.808;2024-03-22T13:25:00;101376.34;;;17.80;59.41
80502;BME280;76286;51.190;6.808;2024-03-22T13:30:11;101366.06;;;17.77;59.21
80502;BME280;76286;51.190;6.808;2024-03-22T13:35:12;101351.44;;;17.73;59.40
80502;BME280;76286;51.190;6.808;2024-03-22T13:45:27;101344.59;;;17.66;58.74
80502;BME280;76286;51.190;6.808;2024-03-22T13:50:31;101346.47;;;17.60;59.43
80502;BME280;76286;51.190;6.808;2024-03-22T13:55:35;101359.34;;;17.53;59.06
80502;BME280;76286;51.190;6.808;2024-03-22T14:00:36;101322.53;;;17.47;59.37
80502;BME280;76286;51.190;6.808;2024-03-22T14:05:40;101333.53;;;17.41;59.27
80502;BME280;76286;51.190;6.808;2024-03-22T14:10:44;101325.66;;;17.34;59.28
80502;BME280;76286;51.190;6.808;2024-03-22T14:15:47;101326.38;;;17.30;59.46
80502;BME280;76286;51.190;6.808;2024-03-22T14:20:48;101314.97;;;17.22;59.73
80502;BME280;76286;51.190;6.808;2024-03-22T14:26:03;101310.34;;;17.18;59.61
80502;BME280;76286;51.190;6.808;2024-03-22T14:31:46;101312.41;;;17.11;60.24
80502;BME280;76286;51.190;6.808;2024-03-22T14:37:03;101313.94;;;17.02;60.00
80502;BME280;76286;51.190;6.808;2024-03-22T14:47:46;101295.69;;;16.87;60.15
80502;BME280;76286;51.190;6.808;2024-03-22T14:53:02;101284.28;;;16.80;60.16
80502;BME280;76286;51.190;6.808;2024-03-22T15:26:45;101271.50;;;16.32;61.12
80502;BME280;76286;51.190;6.808;2024-03-22T15:38:52;101259.31;;;16.08;61.52
80502;BME280;76286;51.190;6.808;2024-03-22T15:44:12;101260.78;;;15.99;61.71
80502;BME280;76286;51.190;6.808;2024-03-22T15:55:22;101258.28;;;15.76;62.61
80502;BME280;76286;51.190;6.808;2024-03-22T16:00:28;101258.19;;;15.71;62.54
80502;BME280;76286;51.190;6.808;2024-03-22T16:05:30;101247.72;;;15.58;62.38
80502;BME280;76286;51.190;6.808;2024-03-22T16:10:40;101243.25;;;15.47;62.60
80502;BME280;76286;51.190;6.808;2024-03-22T16:16:04;101248.44;;;15.37;63.21
80502;BME280;76286;51.190;6.808;2024-03-22T16:21:13;101246.72;;;15.31;63.25
80502;BME280;76286;51.190;6.808;2024-03-22T16:26:27;101236.81;;;15.19;63.24
80502;BME280;76286;51.190;6.808;2024-03-22T16:31:34;101232.66;;;15.12;63.26
80502;BME280;76286;51.190;6.808;2024-03-22T16:37:20;101223.09;;;15.04;63.49
80502;BME280;76286;51.190;6.808;2024-03-22T16:42:18;101225.13;;;14.97;63.92
80502;BME280;76286;51.190;6.808;2024-03-22T16:47:20;101208.56;;;14.89;64.08
80502;BME280;76286;51.190;6.808;2024-03-22T16:52:24;101210.59;;;14.82;64.14
80502;BME280;76286;51.190;6.808;2024-03-22T16:57:39;101207.22;;;14.75;63.93
80502;BME280;76286;51.190;6.808;2024-03-22T17:02:40;101210.03;;;14.68;64.13
80502;BME280;76286;51.190;6.808;2024-03-22T17:07:45;101199.19;;;14.63;64.20
80502;BME280;76286;51.190;6.808;2024-03-22T17:12:55;101204.84;;;14.50;64.37
80502;BME280;76286;51.190;6.808;2024-03-22T17:17:59;101209.09;;;14.46;64.51
80502;BME280;76286;51.190;6.808;2024-03-22T17:23:11;101204.28;;;14.36;64.86
80502;BME280;76286;51.190;6.808;2024-03-22T17:28:25;101198.91;;;14.36;64.58
80502;BME280;76286;51.190;6.808;2024-03-22T17:33:29;101200.09;;;14.29;64.70
80502;BME280;76286;51.190;6.808;2024-03-22T17:38:33;101200.22;;;14.22;64.80
80502;BME280;76286;51.190;6.808;2024-03-22T17:43:46;101199.19;;;14.12;65.12
80502;BME280;76286;51.190;6.808;2024-03-22T17:49:08;101191.34;;;14.10;64.94
80502;BME280;76286;51.190;6.808;2024-03-22T17:54:30;101204.91;;;14.04;64.65
80502;BME280;76286;51.190;6.808;2024-03-22T17:59:42;101190.56;;;13.98;64.81
80502;BME280;76286;51.190;6.808;2024-03-22T18:05:12;101189.88;;;13.91;65.29
80502;BME280;76286;51.190;6.808;2024-03-22T18:10:18;101192.22;;;13.87;65.25
80502;BME280;76286;51.190;6.808;2024-03-22T18:15:19;101173.19;;;13.77;65.10
80502;BME280;76286;51.190;6.808;2024-03-22T18:20:23;101179.59;;;13.76;64.80
80502;BME280;76286;51.190;6.808;2024-03-22T18:25:29;101187.53;;;13.71;65.30
80502;BME280;76286;51.190;6.808;2024-03-22T18:36:08;101177.50;;;13.55;65.22
80502;BME280;76286;51.190;6.808;2024-03-22T18:41:24;101178.53;;;13.54;65.11
80502;BME280;76286;51.190;6.808;2024-03-22T18:47:01;101190.78;;;13.50;65.59
80502;BME280;76286;51.190;6.808;2024-03-22T18:58:19;101169.09;;;13.40;66.02
80502;BME280;76286;51.190;6.808;2024-03-22T19:03:31;101149.72;;;13.38;65.11
80502;BME280;76286;51.190;6.808;2024-03-22T19:08:41;101133.63;;;13.26;65.73
80502;BME280;76286;51.190;6.808;2024-03-22T19:13:48;101116.97;;;13.24;65.54
80502;BME280;76286;51.190;6.808;2024-03-22T19:18:54;101116.59;;;13.21;65.72
80502;BME280;76286;51.190;6.808;2024-03-22T19:23:56;101113.22;;;13.14;65.56
80502;BME280;76286;51.190;6.808;2024-03-22T19:29:10;101106.00;;;13.14;65.61
80502;BME280;76286;51.190;6.808;2024-03-22T19:34:12;101126.94;;;13.06;66.21
80502;BME280;76286;51.190;6.808;2024-03-22T19:39:25;101122.41;;;13.06;65.64
80502;BME280;76286;51.190;6.808;2024-03-22T19:49:46;101116.06;;;12.89;66.12
80502;BME280;76286;51.190;6.808;2024-03-22T19:54:50;101104.38;;;12.84;65.80
80502;BME280;76286;51.190;6.808;2024-03-22T19:59:54;101088.19;;;12.79;66.48
80502;BME280;76286;51.190;6.808;2024-03-22T20:04:58;101088.06;;;12.74;66.46
80502;BME280;76286;51.190;6.808;2024-03-22T20:10:03;101092.09;;;12.64;65.99
80502;BME280;76286;51.190;6.808;2024-03-22T20:15:07;101092.78;;;12.60;66.50
80502;BME280;76286;51.190;6.808;2024-03-22T20:20:41;101091.63;;;12.56;66.06
80502;BME280;76286;51.190;6.808;2024-03-22T20:31:25;101101.03;;;12.47;66.65
80502;BME280;76286;51.190;6.808;2024-03-22T20:36:41;101090.75;;;12.44;66.25
